Barcelona, Brazil
Current Conditions -  °F | °C
As of 1:00 PM on Saturday 25 Oct 2014 (Local Time) from SBNT Reporting Station
Scattered Clouds Scattered Clouds  
Wind Chill: 84°   Ceiling: Unl
Heat Index: 87°   Visibility: 6mi
Dew Point: 68°   Wind: 20mph
Humidity: 58%   Direction: 110°ESE
Pressure: 29.88"   Gusts: NA
Location:  5.95°S, 35.93°W
Report Text: SBNT 251600Z 11017KT 9999 SCT025 29/20 Q1012
Loading
Personal Weather Stations






























Interactive Weather Map New forecast layout! Learn more

10-Day Weather Forecast

Advertisements
Track Severe Weather on mobile